Time;durP1;ratioP1;P1;durP2;ratioP2;P2;SDS_P1;SDS_P2;PMS_P1;PMS_P2;Temp;Humidity;BMP_temperature;BMP_pressure;BME280_temperature;BME280_humidity;BME280_pressure;Samples;Min_cycle;Max_cycle;Signal;HPM_P1;HPM_P2
2021/08/30 00:00:12;;;;;;;8.07;4.63;;;;;;;;;;4965511;28;21581;-76
2021/08/30 00:02:39;;;;;;;10.53;5.83;;;;;;;;;;4963388;28;20604;-75
2021/08/30 00:05:08;;;;;;;10.53;5.80;;;;;;;;;;4962220;28;20810;-75
2021/08/30 00:07:35;;;;;;;10.63;5.70;;;;;;;;;;4965902;28;20202;-75
2021/08/30 00:10:02;;;;;;;10.87;5.60;;;;;;;;;;4963265;28;20573;-76
2021/08/30 00:12:29;;;;;;;9.37;5.50;;;;;;;;;;4963164;28;20910;-75
2021/08/30 00:14:57;;;;;;;10.53;6.37;;;;;;;;;;4963912;28;20233;-75
2021/08/30 00:17:25;;;;;;;15.23;6.80;;;;;;;;;;4963009;28;20202;-75
2021/08/30 00:19:52;;;;;;;10.10;6.33;;;;;;;;;;4962664;28;20222;-75
2021/08/30 00:22:19;;;;;;;11.63;6.97;;;;;;;;;;4960907;28;20292;-75
2021/08/30 00:24:46;;;;;;;9.13;5.37;;;;;;;;;;4962671;28;20241;-76
2021/08/30 00:27:14;;;;;;;11.67;6.60;;;;;;;;;;4960129;28;20198;-75
2021/08/30 00:29:41;;;;;;;14.60;7.40;;;;;;;;;;4964917;28;20292;-75
2021/08/30 00:32:08;;;;;;;13.33;6.97;;;;;;;;;;4962756;28;20672;-75
2021/08/30 00:34:37;;;;;;;10.50;6.87;;;;;;;;;;4961614;28;20238;-76
2021/08/30 00:37:04;;;;;;;14.17;6.90;;;;;;;;;;4964400;28;20212;-75
2021/08/30 00:39:32;;;;;;;15.63;7.57;;;;;;;;;;4963996;28;20236;-76
2021/08/30 00:41:59;;;;;;;11.63;7.20;;;;;;;;;;4966034;28;20661;-75
2021/08/30 00:44:28;;;;;;;14.13;7.13;;;;;;;;;;4962964;28;20237;-75
2021/08/30 00:46:55;;;;;;;12.77;7.30;;;;;;;;;;4963592;28;20268;-76
2021/08/30 00:49:22;;;;;;;12.33;7.47;;;;;;;;;;4968329;28;20206;-75
2021/08/30 00:51:51;;;;;;;13.73;7.37;;;;;;;;;;4963491;28;20593;-75
2021/08/30 00:54:18;;;;;;;11.03;6.37;;;;;;;;;;4961616;28;20225;-75
2021/08/30 00:56:46;;;;;;;15.80;7.43;;;;;;;;;;4966627;28;20220;-75
2021/08/30 00:59:14;;;;;;;13.03;7.10;;;;;;;;;;4967839;28;20319;-76
2021/08/30 01:01:42;;;;;;;21.17;8.00;;;;;;;;;;4962897;28;20292;-76
2021/08/30 01:04:09;;;;;;;13.50;7.73;;;;;;;;;;4963224;28;20252;-75
2021/08/30 01:06:40;;;;;;;12.60;7.50;;;;;;;;;;4967906;28;20300;-75
2021/08/30 01:09:13;;;;;;;13.17;7.60;;;;;;;;;;4965684;28;20214;-74
2021/08/30 01:11:44;;;;;;;16.00;8.13;;;;;;;;;;4968030;28;20221;-74
2021/08/30 01:14:14;;;;;;;14.80;8.10;;;;;;;;;;4966180;28;20243;-74
2021/08/30 01:16:43;;;;;;;17.97;7.83;;;;;;;;;;4967459;28;20220;-75
2021/08/30 01:19:12;;;;;;;15.13;7.77;;;;;;;;;;4969680;28;20692;-74
2021/08/30 01:21:41;;;;;;;9.53;6.27;;;;;;;;;;4967429;28;20211;-75
2021/08/30 01:24:12;;;;;;;17.30;8.10;;;;;;;;;;4969853;28;20233;-74
2021/08/30 01:26:40;;;;;;;16.47;8.13;;;;;;;;;;4965186;28;20208;-75
2021/08/30 01:29:11;;;;;;;14.80;7.93;;;;;;;;;;4967631;28;20216;-74
2021/08/30 01:31:40;;;;;;;14.70;7.70;;;;;;;;;;4969424;28;20210;-74
2021/08/30 01:34:09;;;;;;;13.87;7.57;;;;;;;;;;4969005;28;20225;-74
2021/08/30 01:36:36;;;;;;;14.53;7.40;;;;;;;;;;4967271;28;20206;-74
2021/08/30 01:39:04;;;;;;;12.73;7.50;;;;;;;;;;4965361;28;21057;-74
2021/08/30 01:41:32;;;;;;;14.60;8.10;;;;;;;;;;4968467;28;20206;-75
2021/08/30 01:44:00;;;;;;;12.97;7.87;;;;;;;;;;4964743;28;20225;-75
2021/08/30 01:46:28;;;;;;;14.70;8.13;;;;;;;;;;4969318;28;20218;-75
2021/08/30 01:48:55;;;;;;;13.13;7.73;;;;;;;;;;4968199;28;20587;-74
2021/08/30 01:51:26;;;;;;;14.30;7.70;;;;;;;;;;4966097;28;20206;-74
2021/08/30 01:53:54;;;;;;;15.23;8.40;;;;;;;;;;4966344;28;20716;-74
2021/08/30 01:56:22;;;;;;;15.27;8.33;;;;;;;;;;4968898;28;20686;-74
2021/08/30 02:01:35;;;;;;;13.00;7.47;;;;;;;;;;4966250;28;20213;-74
2021/08/30 02:04:03;;;;;;;13.23;8.37;;;;;;;;;;4966471;28;20794;-74
2021/08/30 02:06:32;;;;;;;10.90;7.03;;;;;;;;;;4967781;28;20296;-74
2021/08/30 02:08:59;;;;;;;16.00;7.57;;;;;;;;;;4968268;28;20593;-75
2021/08/30 02:11:29;;;;;;;11.07;7.30;;;;;;;;;;4968597;28;20295;-74
2021/08/30 02:13:57;;;;;;;11.53;6.93;;;;;;;;;;4969387;28;20225;-75
2021/08/30 02:16:24;;;;;;;10.33;6.60;;;;;;;;;;4965910;28;20217;-74
2021/08/30 02:18:55;;;;;;;14.90;7.03;;;;;;;;;;4966424;28;20871;-73
2021/08/30 02:21:24;;;;;;;15.43;7.20;;;;;;;;;;4965598;28;20329;-73
2021/08/30 02:23:55;;;;;;;10.83;6.90;;;;;;;;;;4970080;28;20244;-73
2021/08/30 02:26:26;;;;;;;18.57;7.73;;;;;;;;;;4965137;28;20692;-74
2021/08/30 02:28:53;;;;;;;12.77;7.20;;;;;;;;;;4967217;28;20233;-74
2021/08/30 02:31:20;;;;;;;13.50;7.03;;;;;;;;;;4968766;28;20210;-73
2021/08/30 02:33:48;;;;;;;12.40;7.40;;;;;;;;;;4967297;28;20615;-73
2021/08/30 02:36:16;;;;;;;13.10;6.90;;;;;;;;;;4970180;28;20213;-73
2021/08/30 02:38:44;;;;;;;12.20;7.00;;;;;;;;;;4968260;28;20206;-73
2021/08/30 02:41:14;;;;;;;12.20;6.87;;;;;;;;;;4965297;28;20225;-73
2021/08/30 02:43:41;;;;;;;11.03;6.87;;;;;;;;;;4968591;28;20642;-73
2021/08/30 02:46:09;;;;;;;14.73;6.93;;;;;;;;;;4966549;28;20676;-73
2021/08/30 02:48:37;;;;;;;11.00;6.90;;;;;;;;;;4968373;28;20292;-73
2021/08/30 02:51:04;;;;;;;12.77;7.60;;;;;;;;;;4968514;28;20220;-73
2021/08/30 02:53:32;;;;;;;13.37;7.30;;;;;;;;;;4968659;28;20227;-74
2021/08/30 02:55:59;;;;;;;14.90;7.60;;;;;;;;;;4965868;28;20217;-73
2021/08/30 02:58:29;;;;;;;12.17;7.13;;;;;;;;;;4965020;28;20209;-73
2021/08/30 03:00:56;;;;;;;13.77;8.00;;;;;;;;;;4967738;28;20240;-74
2021/08/30 03:03:24;;;;;;;13.20;7.50;;;;;;;;;;4966693;28;20202;-74
2021/08/30 03:05:52;;;;;;;13.63;7.77;;;;;;;;;;4963707;28;20302;-74
2021/08/30 03:08:20;;;;;;;11.90;7.97;;;;;;;;;;4963637;28;20216;-74
2021/08/30 03:10:47;;;;;;;12.67;7.57;;;;;;;;;;4970716;28;20813;-73
2021/08/30 03:13:15;;;;;;;11.67;7.53;;;;;;;;;;4965411;28;20777;-74
2021/08/30 03:15:46;;;;;;;15.60;8.10;;;;;;;;;;4961853;28;20293;-73
2021/08/30 03:18:14;;;;;;;13.93;7.50;;;;;;;;;;4965301;28;20297;-74
2021/08/30 03:20:42;;;;;;;13.43;7.77;;;;;;;;;;4965152;28;20232;-74
2021/08/30 03:23:09;;;;;;;13.23;7.60;;;;;;;;;;4962858;28;20213;-74
2021/08/30 03:25:37;;;;;;;15.23;7.90;;;;;;;;;;4967171;28;20987;-76
2021/08/30 03:28:06;;;;;;;12.93;7.30;;;;;;;;;;4967067;28;20296;-74
2021/08/30 03:30:33;;;;;;;12.53;7.70;;;;;;;;;;4966171;28;20703;-73
2021/08/30 03:33:02;;;;;;;16.03;8.37;;;;;;;;;;4967655;28;20649;-74
2021/08/30 03:35:30;;;;;;;12.43;7.30;;;;;;;;;;4962579;28;20356;-73
2021/08/30 03:37:57;;;;;;;15.57;8.07;;;;;;;;;;4964694;28;20220;-73
2021/08/30 03:40:25;;;;;;;15.50;8.17;;;;;;;;;;4963596;28;20244;-76
2021/08/30 03:42:52;;;;;;;14.33;8.60;;;;;;;;;;4963233;28;20410;-74
2021/08/30 03:45:20;;;;;;;13.10;7.67;;;;;;;;;;4964192;28;20229;-74
2021/08/30 03:47:47;;;;;;;13.00;8.17;;;;;;;;;;4966691;28;20224;-74
2021/08/30 03:50:17;;;;;;;14.53;8.20;;;;;;;;;;4966883;28;20213;-75
2021/08/30 03:52:44;;;;;;;16.23;8.70;;;;;;;;;;4965035;28;20216;-74
2021/08/30 03:55:11;;;;;;;16.53;8.80;;;;;;;;;;4964210;28;20230;-75
2021/08/30 03:57:38;;;;;;;16.87;8.60;;;;;;;;;;4962736;28;20206;-74
2021/08/30 04:00:07;;;;;;;16.37;8.70;;;;;;;;;;4962378;28;20309;-73
2021/08/30 04:02:35;;;;;;;15.33;9.00;;;;;;;;;;4968185;28;20212;-74
2021/08/30 04:05:02;;;;;;;13.47;8.03;;;;;;;;;;4968812;28;20312;-75
2021/08/30 04:07:31;;;;;;;14.67;8.67;;;;;;;;;;4969325;28;20296;-75
2021/08/30 04:09:59;;;;;;;12.93;8.50;;;;;;;;;;4966130;28;20205;-75
2021/08/30 04:12:26;;;;;;;13.90;8.40;;;;;;;;;;4969123;28;20300;-75
2021/08/30 04:14:53;;;;;;;14.30;8.37;;;;;;;;;;4969043;28;20232;-77
2021/08/30 04:17:21;;;;;;;13.57;8.03;;;;;;;;;;4959397;28;20753;-76
2021/08/30 04:19:48;;;;;;;15.30;8.63;;;;;;;;;;4969793;28;20213;-77
2021/08/30 04:22:15;;;;;;;15.73;8.80;;;;;;;;;;4966037;28;20817;-76
2021/08/30 04:24:43;;;;;;;14.03;8.60;;;;;;;;;;4962568;28;20765;-76
2021/08/30 04:27:11;;;;;;;16.00;8.80;;;;;;;;;;4969165;28;20549;-78
2021/08/30 04:29:39;;;;;;;14.07;8.20;;;;;;;;;;4965821;28;20748;-76
2021/08/30 04:32:08;;;;;;;14.70;8.33;;;;;;;;;;4964660;28;20198;-76
2021/08/30 04:34:36;;;;;;;15.50;9.40;;;;;;;;;;4964702;28;20269;-77
2021/08/30 04:37:03;;;;;;;16.57;8.73;;;;;;;;;;4962176;28;20214;-75
2021/08/30 04:39:31;;;;;;;17.93;8.77;;;;;;;;;;4966964;28;20210;-76
2021/08/30 04:42:01;;;;;;;18.17;9.23;;;;;;;;;;4971313;28;20320;-77
2021/08/30 04:44:29;;;;;;;17.80;8.23;;;;;;;;;;4963060;28;20316;-75
2021/08/30 04:46:56;;;;;;;16.97;8.90;;;;;;;;;;4965557;28;20220;-75
2021/08/30 04:49:23;;;;;;;15.50;9.23;;;;;;;;;;4971138;28;20304;-74
2021/08/30 04:51:50;;;;;;;18.20;8.17;;;;;;;;;;4960157;28;20228;-76
2021/08/30 04:54:19;;;;;;;18.73;8.67;;;;;;;;;;4965188;28;20312;-74
2021/08/30 04:56:47;;;;;;;16.27;9.03;;;;;;;;;;4963088;28;20579;-75
2021/08/30 04:59:15;;;;;;;16.10;9.07;;;;;;;;;;4963938;28;20304;-74
2021/08/30 05:01:42;;;;;;;17.07;9.00;;;;;;;;;;4962340;28;20336;-76
2021/08/30 05:04:10;;;;;;;18.63;8.77;;;;;;;;;;4961345;28;20257;-75
2021/08/30 05:06:37;;;;;;;16.13;8.97;;;;;;;;;;4971772;28;20289;-75
2021/08/30 05:09:04;;;;;;;17.93;9.30;;;;;;;;;;4966550;28;20216;-74
2021/08/30 05:11:31;;;;;;;14.20;9.07;;;;;;;;;;4969634;28;20252;-75
2021/08/30 05:14:00;;;;;;;16.93;9.30;;;;;;;;;;4966650;28;20257;-77
2021/08/30 05:16:28;;;;;;;16.90;9.87;;;;;;;;;;4963242;28;20207;-76
2021/08/30 05:18:55;;;;;;;15.63;9.23;;;;;;;;;;4965889;28;20205;-76
2021/08/30 05:21:22;;;;;;;16.30;9.17;;;;;;;;;;4963594;28;20544;-74
2021/08/30 05:23:50;;;;;;;16.20;9.13;;;;;;;;;;4965353;28;20246;-74
2021/08/30 05:26:17;;;;;;;19.23;9.17;;;;;;;;;;4964067;28;20911;-75
2021/08/30 05:28:44;;;;;;;22.43;10.00;;;;;;;;;;4966552;28;20308;-74
2021/08/30 05:31:11;;;;;;;14.33;8.60;;;;;;;;;;4961932;28;20578;-77
2021/08/30 05:33:40;;;;;;;16.60;9.30;;;;;;;;;;4966155;28;20720;-74
2021/08/30 05:36:07;;;;;;;18.67;9.23;;;;;;;;;;4965989;28;20685;-75
2021/08/30 05:38:34;;;;;;;16.17;8.80;;;;;;;;;;4968457;28;20237;-75
2021/08/30 05:41:01;;;;;;;15.40;9.50;;;;;;;;;;4968484;28;20228;-75
2021/08/30 05:43:28;;;;;;;15.47;8.93;;;;;;;;;;4966442;28;20311;-75
2021/08/30 05:45:55;;;;;;;19.27;9.00;;;;;;;;;;4968610;28;20206;-76
2021/08/30 05:48:23;;;;;;;17.30;9.30;;;;;;;;;;4965383;28;20213;-75
2021/08/30 05:50:51;;;;;;;16.73;9.20;;;;;;;;;;4965297;28;20205;-76
2021/08/30 05:53:20;;;;;;;16.20;9.63;;;;;;;;;;4966958;28;20305;-75
2021/08/30 05:55:47;;;;;;;18.70;9.43;;;;;;;;;;4967217;28;20268;-75
2021/08/30 05:58:14;;;;;;;16.03;8.90;;;;;;;;;;4967599;28;20198;-75
2021/08/30 06:00:42;;;;;;;20.87;9.53;;;;;;;;;;4966080;28;20226;-76
2021/08/30 06:03:09;;;;;;;17.37;9.33;;;;;;;;;;4965456;28;20297;-75
2021/08/30 06:05:36;;;;;;;16.77;8.87;;;;;;;;;;4963064;28;20863;-75
2021/08/30 06:08:05;;;;;;;17.13;8.67;;;;;;;;;;4968635;28;20785;-75
2021/08/30 06:10:32;;;;;;;11.57;7.50;;;;;;;;;;4965944;28;20292;-75
2021/08/30 06:12:59;;;;;;;12.53;7.93;;;;;;;;;;4964002;28;20202;-76
2021/08/30 06:15:26;;;;;;;14.77;7.70;;;;;;;;;;4961514;28;20229;-76
2021/08/30 06:17:53;;;;;;;16.03;8.10;;;;;;;;;;4964367;28;20210;-74
2021/08/30 06:20:22;;;;;;;12.23;7.70;;;;;;;;;;4964116;28;20208;-75
2021/08/30 06:22:49;;;;;;;14.37;8.93;;;;;;;;;;4959629;28;20223;-74
2021/08/30 06:25:18;;;;;;;18.47;9.17;;;;;;;;;;4963332;28;20428;-75
2021/08/30 06:27:45;;;;;;;14.83;8.33;;;;;;;;;;4965066;28;20202;-75
2021/08/30 06:30:12;;;;;;;14.13;8.37;;;;;;;;;;4964951;28;20317;-74
2021/08/30 06:32:40;;;;;;;14.43;8.57;;;;;;;;;;4965916;28;20212;-75
2021/08/30 06:35:07;;;;;;;15.07;7.83;;;;;;;;;;4962815;28;20917;-74
2021/08/30 06:37:37;;;;;;;15.33;8.27;;;;;;;;;;4965345;28;20198;-75
2021/08/30 06:40:04;;;;;;;15.37;8.53;;;;;;;;;;4959131;28;20369;-75
2021/08/30 06:42:33;;;;;;;15.63;8.10;;;;;;;;;;4958864;28;20229;-76
2021/08/30 06:45:00;;;;;;;13.60;8.53;;;;;;;;;;4964496;28;20745;-75
2021/08/30 06:47:27;;;;;;;12.70;7.77;;;;;;;;;;4967835;28;20567;-74
2021/08/30 06:49:54;;;;;;;14.00;8.17;;;;;;;;;;4966787;28;20293;-74
2021/08/30 06:52:21;;;;;;;13.10;7.77;;;;;;;;;;4966127;28;20232;-73
2021/08/30 06:54:49;;;;;;;13.93;8.10;;;;;;;;;;4964383;28;20341;-74
2021/08/30 06:57:16;;;;;;;15.53;7.97;;;;;;;;;;4969918;28;20290;-76
2021/08/30 06:59:44;;;;;;;12.83;7.57;;;;;;;;;;4966883;28;20665;-74
2021/08/30 07:02:11;;;;;;;12.90;7.57;;;;;;;;;;4964719;28;20602;-73
2021/08/30 07:04:39;;;;;;;13.93;9.00;;;;;;;;;;4972348;28;20228;-74
2021/08/30 07:07:06;;;;;;;14.83;8.07;;;;;;;;;;4964827;28;20776;-73
2021/08/30 07:09:33;;;;;;;14.67;8.70;;;;;;;;;;4963698;28;20238;-74
2021/08/30 07:12:00;;;;;;;17.17;8.47;;;;;;;;;;4970502;28;20293;-76
2021/08/30 07:14:27;;;;;;;16.33;8.10;;;;;;;;;;4963629;28;20230;-76
2021/08/30 07:16:56;;;;;;;15.83;8.90;;;;;;;;;;4965030;28;20754;-76
2021/08/30 07:19:23;;;;;;;13.50;8.70;;;;;;;;;;4969726;28;20202;-75
2021/08/30 07:21:50;;;;;;;15.17;8.20;;;;;;;;;;4991671;23;20360;-74
2021/08/30 07:24:17;;;;;;;15.30;8.30;;;;;;;;;;4997905;28;20652;-74
2021/08/30 07:26:45;;;;;;;13.27;8.03;;;;;;;;;;5001306;28;20205;-75
2021/08/30 07:29:12;;;;;;;15.20;8.17;;;;;;;;;;4999780;28;20738;-75
2021/08/30 07:31:39;;;;;;;12.67;7.57;;;;;;;;;;4996268;28;20286;-74
2021/08/30 07:34:08;;;;;;;14.30;8.00;;;;;;;;;;4999081;28;20315;-74
2021/08/30 07:36:35;;;;;;;12.53;7.27;;;;;;;;;;4999889;28;20580;-74
2021/08/30 07:39:03;;;;;;;12.17;7.27;;;;;;;;;;5001880;28;20240;-74
2021/08/30 07:41:31;;;;;;;11.27;6.70;;;;;;;;;;5000916;28;20264;-74
2021/08/30 07:43:58;;;;;;;13.10;7.37;;;;;;;;;;4997011;28;20228;-74
2021/08/30 07:46:25;;;;;;;13.23;7.60;;;;;;;;;;5001247;28;20212;-77
2021/08/30 07:48:53;;;;;;;13.07;7.80;;;;;;;;;;5001314;28;21011;-76
2021/08/30 07:51:21;;;;;;;15.20;7.63;;;;;;;;;;4996449;28;20292;-75
2021/08/30 07:53:48;;;;;;;10.83;7.23;;;;;;;;;;4997126;28;20229;-76
2021/08/30 07:56:16;;;;;;;15.23;8.50;;;;;;;;;;5003344;28;20303;-77
2021/08/30 07:58:43;;;;;;;13.33;7.93;;;;;;;;;;5000467;28;20205;-75
2021/08/30 08:01:10;;;;;;;13.40;8.50;;;;;;;;;;5002076;28;20228;-77
2021/08/30 08:03:37;;;;;;;17.63;8.50;;;;;;;;;;4998909;28;20334;-75
2021/08/30 08:06:04;;;;;;;15.47;8.87;;;;;;;;;;5005346;28;20299;-75
2021/08/30 08:08:33;;;;;;;15.37;7.07;;;;;;;;;;5000816;28;20335;-75
2021/08/30 08:11:00;;;;;;;11.23;7.47;;;;;;;;;;5003599;28;20204;-76
2021/08/30 08:13:29;;;;;;;11.90;6.97;;;;;;;;;;5006311;28;20234;-75
2021/08/30 08:15:56;;;;;;;10.70;7.43;;;;;;;;;;5004827;28;20570;-77
2021/08/30 08:18:24;;;;;;;13.47;7.83;;;;;;;;;;5002762;28;20207;-77
2021/08/30 08:20:51;;;;;;;12.03;7.43;;;;;;;;;;5002211;28;20299;-76
2021/08/30 08:23:19;;;;;;;12.33;7.83;;;;;;;;;;5003003;28;20683;-75
2021/08/30 08:25:47;;;;;;;16.67;7.83;;;;;;;;;;5003060;28;20661;-74
2021/08/30 08:28:14;;;;;;;11.97;7.40;;;;;;;;;;5005474;28;20208;-74
2021/08/30 08:30:41;;;;;;;16.67;8.30;;;;;;;;;;5003647;28;20200;-74
2021/08/30 08:33:09;;;;;;;13.93;8.13;;;;;;;;;;5003534;28;20204;-79
2021/08/30 08:35:37;;;;;;;17.70;7.70;;;;;;;;;;5004014;28;20207;-76
2021/08/30 08:38:04;;;;;;;15.17;7.77;;;;;;;;;;5001712;28;20231;-73
2021/08/30 08:40:31;;;;;;;17.57;8.47;;;;;;;;;;4997074;28;20430;-76
2021/08/30 08:43:09;;;;;;;14.37;7.53;;;;;;;;;;4992932;28;20319;-76
2021/08/30 08:45:38;;;;;;;19.87;9.00;;;;;;;;;;5005339;28;20212;-76
2021/08/30 08:48:05;;;;;;;14.40;7.63;;;;;;;;;;5008433;28;20251;-76
2021/08/30 08:50:33;;;;;;;91.40;12.53;;;;;;;;;;5009201;28;20629;-76
2021/08/30 08:53:04;;;;;;;15.57;6.70;;;;;;;;;;5009525;28;20282;-76
2021/08/30 08:55:33;;;;;;;16.53;7.67;;;;;;;;;;5003993;28;20227;-78
2021/08/30 08:58:04;;;;;;;14.00;7.73;;;;;;;;;;5001297;28;20208;-78
2021/08/30 09:00:31;;;;;;;11.77;7.37;;;;;;;;;;5005939;28;20408;-79
2021/08/30 09:02:58;;;;;;;12.50;7.07;;;;;;;;;;5001223;28;20689;-75
2021/08/30 09:05:27;;;;;;;11.67;7.10;;;;;;;;;;5002502;28;20667;-78
2021/08/30 09:07:57;;;;;;;13.10;7.07;;;;;;;;;;4999966;28;20255;-75
2021/08/30 09:10:26;;;;;;;14.20;7.50;;;;;;;;;;5002194;28;20291;-74
2021/08/30 09:13:06;;;;;;;12.20;6.80;;;;;;;;;;5000066;28;20208;-74
2021/08/30 09:15:33;;;;;;;10.30;6.70;;;;;;;;;;5000311;28;20209;-76
2021/08/30 09:18:00;;;;;;;11.70;6.87;;;;;;;;;;5001244;28;20224;-76
2021/08/30 09:20:29;;;;;;;10.10;6.20;;;;;;;;;;5002957;28;20288;-75
2021/08/30 09:22:56;;;;;;;11.07;6.87;;;;;;;;;;5002030;28;21185;-76
2021/08/30 09:25:23;;;;;;;13.07;7.33;;;;;;;;;;5003066;28;20224;-75
2021/08/30 09:27:51;;;;;;;11.23;5.83;;;;;;;;;;5003360;28;20234;-74
2021/08/30 09:30:25;;;;;;;11.40;6.57;;;;;;;;;;5000352;28;20291;-73
2021/08/30 09:32:52;;;;;;;14.30;7.30;;;;;;;;;;4999188;28;20204;-75
2021/08/30 09:35:20;;;;;;;9.43;5.97;;;;;;;;;;5003128;28;20234;-73
2021/08/30 09:37:47;;;;;;;11.90;6.00;;;;;;;;;;4998826;28;20212;-73
2021/08/30 09:40:15;;;;;;;9.47;6.23;;;;;;;;;;4999557;28;20697;-73
2021/08/30 09:42:46;;;;;;;8.63;6.03;;;;;;;;;;4999268;28;20221;-75
2021/08/30 09:45:15;;;;;;;13.43;6.77;;;;;;;;;;5004033;28;20660;-73
2021/08/30 09:47:55;;;;;;;9.70;6.30;;;;;;;;;;5000107;28;20204;-73
2021/08/30 09:50:28;;;;;;;10.57;6.80;;;;;;;;;;5005948;28;20209;-73
2021/08/30 09:52:55;;;;;;;9.77;6.50;;;;;;;;;;5002943;28;20212;-75
2021/08/30 09:55:22;;;;;;;11.87;7.20;;;;;;;;;;5001825;28;20764;-74
2021/08/30 09:57:50;;;;;;;10.20;6.70;;;;;;;;;;5000229;28;20212;-73
2021/08/30 10:00:19;;;;;;;10.60;6.50;;;;;;;;;;4998941;28;20300;-74
2021/08/30 10:02:47;;;;;;;12.77;7.30;;;;;;;;;;5000205;28;20224;-74
2021/08/30 10:05:16;;;;;;;13.37;7.70;;;;;;;;;;5002046;28;20235;-75
2021/08/30 10:07:44;;;;;;;12.40;7.13;;;;;;;;;;5000191;28;20399;-73
2021/08/30 10:10:11;;;;;;;12.57;6.40;;;;;;;;;;5002960;28;20340;-73
2021/08/30 10:12:39;;;;;;;10.43;6.50;;;;;;;;;;5000716;28;20212;-74
2021/08/30 10:15:07;;;;;;;14.43;7.27;;;;;;;;;;5002274;28;20235;-75
2021/08/30 10:17:34;;;;;;;9.03;6.30;;;;;;;;;;5000347;28;20219;-73
2021/08/30 10:20:02;;;;;;;9.60;6.33;;;;;;;;;;5007841;28;20598;-74
2021/08/30 10:22:31;;;;;;;11.50;6.53;;;;;;;;;;5004313;28;20250;-74
2021/08/30 10:24:58;;;;;;;12.60;7.17;;;;;;;;;;5001281;28;20228;-74
2021/08/30 10:27:29;;;;;;;10.23;6.20;;;;;;;;;;5001553;28;20292;-75
2021/08/30 10:30:03;;;;;;;10.20;6.00;;;;;;;;;;4999806;28;20881;-75
2021/08/30 10:32:37;;;;;;;11.63;6.40;;;;;;;;;;4997759;28;20200;-76
2021/08/30 10:35:12;;;;;;;10.37;6.47;;;;;;;;;;5000158;28;20329;-75
2021/08/30 10:37:48;;;;;;;10.23;6.30;;;;;;;;;;4999841;28;20625;-74
2021/08/30 10:40:16;;;;;;;11.07;6.67;;;;;;;;;;5006542;28;20207;-75
2021/08/30 10:42:43;;;;;;;10.53;6.57;;;;;;;;;;5005667;28;20312;-75
2021/08/30 10:45:14;;;;;;;11.47;6.70;;;;;;;;;;5002619;28;20653;-75
2021/08/30 10:47:41;;;;;;;10.23;6.80;;;;;;;;;;5004251;28;20895;-75
2021/08/30 10:50:21;;;;;;;8.97;5.83;;;;;;;;;;5002996;28;20235;-75
2021/08/30 10:53:03;;;;;;;9.70;5.93;;;;;;;;;;5004270;28;20281;-75
2021/08/30 10:55:37;;;;;;;10.70;6.30;;;;;;;;;;5007030;28;20607;-75
2021/08/30 10:58:11;;;;;;;13.70;6.63;;;;;;;;;;5001491;28;20217;-75
2021/08/30 11:00:38;;;;;;;11.13;6.30;;;;;;;;;;5005808;28;20212;-75
2021/08/30 11:03:06;;;;;;;12.87;6.17;;;;;;;;;;5006192;28;20234;-76
2021/08/30 11:05:33;;;;;;;10.33;5.73;;;;;;;;;;5000904;28;20282;-76
2021/08/30 11:08:02;;;;;;;13.63;6.40;;;;;;;;;;5005008;28;20209;-76
2021/08/30 11:10:30;;;;;;;10.33;6.60;;;;;;;;;;5004649;28;20212;-77
2021/08/30 11:12:59;;;;;;;9.60;6.30;;;;;;;;;;5003523;28;20211;-76
2021/08/30 11:15:31;;;;;;;11.20;6.20;;;;;;;;;;5005089;28;20298;-76
2021/08/30 11:17:59;;;;;;;10.50;6.70;;;;;;;;;;5004270;28;20670;-77
2021/08/30 11:20:26;;;;;;;12.73;7.00;;;;;;;;;;5003646;28;20784;-76
2021/08/30 11:22:54;;;;;;;10.17;6.83;;;;;;;;;;5006140;28;20259;-77
2021/08/30 11:25:22;;;;;;;12.43;6.20;;;;;;;;;;5005872;28;20259;-75
2021/08/30 11:27:50;;;;;;;10.43;6.20;;;;;;;;;;4999265;28;20208;-74
2021/08/30 11:30:20;;;;;;;16.30;6.97;;;;;;;;;;5003106;28;20216;-74
2021/08/30 11:32:49;;;;;;;10.80;6.70;;;;;;;;;;4998891;28;20231;-74
2021/08/30 11:35:17;;;;;;;12.07;6.87;;;;;;;;;;5007590;28;20232;-76
2021/08/30 11:37:44;;;;;;;11.57;6.60;;;;;;;;;;5005748;28;20267;-76
2021/08/30 11:40:14;;;;;;;18.77;6.83;;;;;;;;;;5005923;28;21227;-75
2021/08/30 11:42:43;;;;;;;13.73;6.77;;;;;;;;;;5006894;28;20262;-76
2021/08/30 11:45:11;;;;;;;15.13;6.60;;;;;;;;;;5008245;28;20247;-77
2021/08/30 11:47:39;;;;;;;12.83;6.77;;;;;;;;;;5002107;28;20248;-77
2021/08/30 11:50:07;;;;;;;11.80;6.33;;;;;;;;;;5005223;28;20212;-76
2021/08/30 11:52:36;;;;;;;10.67;6.47;;;;;;;;;;5008047;28;20203;-75
2021/08/30 11:55:05;;;;;;;10.87;6.60;;;;;;;;;;5001889;28;20228;-75
2021/08/30 11:57:39;;;;;;;11.83;6.80;;;;;;;;;;5000295;28;20581;-76
2021/08/30 12:00:09;;;;;;;9.83;6.50;;;;;;;;;;5002813;28;20247;-76
2021/08/30 12:02:36;;;;;;;13.13;6.33;;;;;;;;;;5005944;28;20224;-76
2021/08/30 12:05:04;;;;;;;17.63;6.67;;;;;;;;;;5012445;28;20263;-76
2021/08/30 12:07:33;;;;;;;11.10;6.23;;;;;;;;;;5009918;28;20232;-76
2021/08/30 12:10:00;;;;;;;17.17;6.93;;;;;;;;;;5001016;28;20805;-75
2021/08/30 12:12:30;;;;;;;12.87;6.30;;;;;;;;;;5000683;28;20836;-78
2021/08/30 12:14:58;;;;;;;11.77;6.50;;;;;;;;;;5008415;28;20286;-76
2021/08/30 12:17:27;;;;;;;9.83;5.70;;;;;;;;;;5013401;28;20209;-77
2021/08/30 12:19:56;;;;;;;13.23;6.73;;;;;;;;;;5008726;28;20291;-76
2021/08/30 12:22:24;;;;;;;14.30;6.17;;;;;;;;;;5000006;28;20251;-76
2021/08/30 12:24:51;;;;;;;18.60;5.87;;;;;;;;;;5001018;28;20609;-75
2021/08/30 12:27:21;;;;;;;18.00;6.20;;;;;;;;;;4997583;28;20215;-76
2021/08/30 12:29:48;;;;;;;14.33;6.10;;;;;;;;;;5000210;28;20503;-77
2021/08/30 12:32:15;;;;;;;13.77;6.00;;;;;;;;;;4999137;28;20213;-77
2021/08/30 12:34:43;;;;;;;12.47;6.50;;;;;;;;;;5009299;28;20259;-78
2021/08/30 12:37:11;;;;;;;9.80;5.67;;;;;;;;;;4997993;28;20218;-77
2021/08/30 12:39:38;;;;;;;9.17;5.47;;;;;;;;;;4999293;28;20582;-76
2021/08/30 12:42:05;;;;;;;9.23;5.67;;;;;;;;;;5022663;28;20541;-76
2021/08/30 12:44:32;;;;;;;13.87;6.13;;;;;;;;;;4999561;28;20240;-78
2021/08/30 12:46:59;;;;;;;8.67;5.37;;;;;;;;;;5002799;28;20204;-75
2021/08/30 12:49:26;;;;;;;10.57;5.60;;;;;;;;;;5000428;28;20740;-75
2021/08/30 12:51:55;;;;;;;11.70;5.83;;;;;;;;;;5003587;28;20726;-76
2021/08/30 12:54:22;;;;;;;8.77;5.60;;;;;;;;;;5000851;28;20231;-76
2021/08/30 12:56:51;;;;;;;8.80;5.77;;;;;;;;;;4998451;28;20200;-75
2021/08/30 12:59:18;;;;;;;8.07;5.43;;;;;;;;;;4999089;28;20737;-76
2021/08/30 13:01:45;;;;;;;10.83;5.93;;;;;;;;;;5001304;28;20654;-76
2021/08/30 13:04:12;;;;;;;10.37;5.57;;;;;;;;;;5008757;28;20768;-76
2021/08/30 13:06:39;;;;;;;11.57;5.47;;;;;;;;;;4999851;28;20675;-76
2021/08/30 13:09:08;;;;;;;8.17;5.17;;;;;;;;;;5006064;28;20295;-76
2021/08/30 13:11:35;;;;;;;7.93;5.30;;;;;;;;;;5002894;28;20296;-76
2021/08/30 13:14:02;;;;;;;9.50;5.50;;;;;;;;;;5006437;28;20683;-76
2021/08/30 13:16:30;;;;;;;37.83;7.03;;;;;;;;;;5004174;28;20308;-76
2021/08/30 13:18:57;;;;;;;44.67;7.43;;;;;;;;;;5008743;28;20225;-77
2021/08/30 13:21:24;;;;;;;17.10;5.93;;;;;;;;;;5002508;28;20633;-76
2021/08/30 13:23:52;;;;;;;15.63;5.73;;;;;;;;;;5003471;28;20225;-77
2021/08/30 13:26:20;;;;;;;13.10;5.27;;;;;;;;;;5003556;28;20208;-76
2021/08/30 13:28:47;;;;;;;10.30;5.80;;;;;;;;;;5003891;28;20212;-76
2021/08/30 13:31:16;;;;;;;25.53;5.67;;;;;;;;;;4999687;28;20236;-76
2021/08/30 13:33:43;;;;;;;25.07;6.30;;;;;;;;;;5006114;28;20229;-77
2021/08/30 13:36:10;;;;;;;9.60;5.83;;;;;;;;;;5000755;28;20768;-75
2021/08/30 13:38:37;;;;;;;8.60;5.17;;;;;;;;;;4997180;28;20668;-75
2021/08/30 13:41:04;;;;;;;14.87;5.47;;;;;;;;;;5001383;28;20284;-76
2021/08/30 13:43:34;;;;;;;14.33;5.50;;;;;;;;;;5000332;28;20307;-77
2021/08/30 13:46:01;;;;;;;9.70;5.53;;;;;;;;;;5001498;28;20675;-77
2021/08/30 13:48:28;;;;;;;19.37;5.73;;;;;;;;;;5002833;28;20295;-76
2021/08/30 13:50:55;;;;;;;10.60;5.23;;;;;;;;;;4998591;28;20210;-76
2021/08/30 13:53:22;;;;;;;10.70;5.40;;;;;;;;;;5002092;28;20209;-76
2021/08/30 13:55:50;;;;;;;9.10;5.40;;;;;;;;;;5002729;28;20633;-76
2021/08/30 13:58:17;;;;;;;11.90;5.67;;;;;;;;;;5001910;28;20203;-78
2021/08/30 14:00:45;;;;;;;13.17;5.40;;;;;;;;;;4999566;28;20300;-77
2021/08/30 14:03:12;;;;;;;8.63;5.17;;;;;;;;;;5001900;28;20653;-76
2021/08/30 14:05:40;;;;;;;6.47;4.63;;;;;;;;;;5001839;28;20296;-77
2021/08/30 14:08:08;;;;;;;8.20;5.40;;;;;;;;;;4999686;28;20295;-77
2021/08/30 14:10:35;;;;;;;11.53;5.30;;;;;;;;;;4998913;28;20208;-76
2021/08/30 14:13:02;;;;;;;6.93;4.77;;;;;;;;;;5000757;28;20615;-75
2021/08/30 14:15:29;;;;;;;8.33;5.20;;;;;;;;;;5000554;28;20714;-77
2021/08/30 14:17:58;;;;;;;8.07;4.60;;;;;;;;;;5002229;28;20235;-76
2021/08/30 14:20:25;;;;;;;6.27;4.63;;;;;;;;;;5001291;28;20209;-76
2021/08/30 14:22:52;;;;;;;7.20;4.83;;;;;;;;;;5001881;28;20299;-76
2021/08/30 14:25:20;;;;;;;9.30;4.90;;;;;;;;;;4999981;28;20240;-77
2021/08/30 14:27:48;;;;;;;9.90;5.03;;;;;;;;;;4999342;28;20307;-75
2021/08/30 14:30:16;;;;;;;7.30;4.80;;;;;;;;;;5002511;28;20212;-75
2021/08/30 14:32:44;;;;;;;8.07;4.90;;;;;;;;;;5001808;28;20208;-77
2021/08/30 14:35:14;;;;;;;7.03;4.80;;;;;;;;;;5006126;28;20308;-76
2021/08/30 14:37:41;;;;;;;6.20;4.17;;;;;;;;;;5002602;28;20200;-77